Time,TemperatureF,DewpointF,PressureIn,WindDirection,WindDirectionDegrees,WindSpeedMPH,WindSpeedGustMPH,Humidity,HourlyPrecipIn,Conditions,Clouds,dailyrainin,SoftwareType,DateUTC
2013-01-28 00:04:00,27.0,24.0,30.03,SSE,152,1.0,4.0,89,0.00,,,0.00,,2013-01-28 05:04:00,
2013-01-28 00:11:00,27.0,24.0,30.03,SSE,152,1.0,4.0,89,0.00,,,0.00,,2013-01-28 05:11:00,
2013-01-28 00:22:00,28.0,25.0,30.03,SSE,164,3.0,6.0,88,0.00,,,0.00,,2013-01-28 05:22:00,
2013-01-28 00:32:00,27.0,24.0,30.02,SSE,154,0.0,4.0,88,0.00,,,0.00,,2013-01-28 05:32:00,
2013-01-28 00:42:00,27.0,24.0,30.02,SSE,154,0.0,4.0,88,0.00,,,0.00,,2013-01-28 05:42:00,
2013-01-28 00:52:00,28.0,25.0,30.01,SE,146,1.0,4.0,89,0.00,,,0.00,,2013-01-28 05:52:00,
2013-01-28 01:02:00,27.0,24.0,30.00,SSE,151,0.0,5.0,89,0.00,,,0.00,,2013-01-28 06:02:00,
2013-01-28 01:10:00,28.0,25.0,29.99,SSE,153,2.0,4.0,89,0.00,,,0.00,,2013-01-28 06:10:00,
2013-01-28 01:11:00,27.0,24.0,30.00,SSE,151,0.0,5.0,89,0.00,,,0.00,,2013-01-28 06:11:00,
2013-01-28 01:22:00,28.0,25.0,30.00,SSE,153,3.0,4.0,89,0.00,,,0.00,,2013-01-28 06:22:00,
2013-01-28 01:32:00,28.0,25.0,29.99,SSE,153,2.0,4.0,89,0.00,,,0.00,,2013-01-28 06:32:00,
2013-01-28 01:42:00,28.0,25.0,29.99,SSE,153,2.0,4.0,89,0.00,,,0.00,,2013-01-28 06:42:00,
2013-01-28 01:52:00,28.0,25.0,29.99,SSE,153,2.0,4.0,89,0.00,,,0.00,,2013-01-28 06:52:00,
2013-01-28 02:02:00,28.0,25.0,29.99,SSE,153,2.0,4.0,89,0.00,,,0.00,,2013-01-28 07:02:00,
2013-01-28 09:33:00,31.0,29.0,29.81,ESE,111,1.0,2.0,92,0.00,,,0.00,,2013-01-28 14:33:00,
2013-01-28 09:43:00,31.0,29.0,29.81,ESE,111,1.0,2.0,92,0.00,,,0.00,,2013-01-28 14:43:00,
2013-01-28 09:53:00,31.0,29.0,29.81,ESE,111,1.0,3.0,92,0.00,,,0.00,,2013-01-28 14:53:00,
2013-01-28 10:03:00,31.0,29.0,29.81,ESE,109,1.0,3.0,92,0.00,,,0.00,,2013-01-28 15:03:00,
2013-01-28 10:13:00,31.0,29.0,29.81,ESE,109,1.0,3.0,92,0.00,,,0.00,,2013-01-28 15:13:00,
2013-01-28 10:23:00,31.0,29.0,29.81,ESE,109,0.0,4.0,92,0.00,,,0.00,,2013-01-28 15:23:00,
2013-01-28 10:33:00,31.0,29.0,29.81,ESE,110,0.0,3.0,92,0.00,,,0.00,,2013-01-28 15:33:00,
2013-01-28 10:43:00,31.0,29.0,29.81,ESE,110,0.0,3.0,92,0.00,,,0.00,,2013-01-28 15:43:00,
2013-01-28 10:53:00,32.0,30.0,29.81,ESE,112,0.0,2.0,93,0.00,,,0.00,,2013-01-28 15:53:00,
2013-01-28 11:04:00,32.0,30.0,29.82,ESE,113,0.0,3.0,92,0.00,,,0.00,,2013-01-28 16:04:00,
2013-01-28 11:12:00,32.0,30.0,29.82,ESE,113,0.0,3.0,92,0.00,,,0.00,,2013-01-28 16:12:00,
2013-01-28 11:22:00,32.0,30.0,29.82,ESE,113,0.0,2.0,92,0.00,,,0.00,,2013-01-28 16:22:00,
2013-01-28 11:32:00,32.0,30.0,29.83,ESE,113,0.0,0.0,92,0.00,,,0.00,,2013-01-28 16:32:00,
2013-01-28 11:43:00,32.0,30.0,29.83,ESE,113,0.0,0.0,92,0.00,,,0.00,,2013-01-28 16:43:00,
2013-01-28 11:53:00,32.0,30.0,29.83,ESE,113,2.0,3.0,92,0.00,,,0.00,,2013-01-28 16:53:00,
2013-01-28 12:02:00,32.0,30.0,29.83,ESE,113,2.0,3.0,92,0.00,,,0.00,,2013-01-28 17:02:00,
2013-01-28 12:12:00,32.0,30.0,29.83,ESE,113,2.0,3.0,92,0.00,,,0.00,,2013-01-28 17:12:00,
2013-01-28 12:23:00,32.0,30.0,29.83,North,4,3.0,5.0,92,0.00,,,0.00,,2013-01-28 17:23:00,
2013-01-28 12:32:00,32.0,30.0,29.83,North,0,4.0,6.0,92,0.00,,,0.00,,2013-01-28 17:32:00,
2013-01-28 12:42:00,32.0,30.0,29.83,North,0,4.0,6.0,92,0.00,,,0.00,,2013-01-28 17:42:00,
2013-01-28 12:53:00,32.0,30.0,29.83,North,0,0.0,2.0,93,0.00,,,0.00,,2013-01-28 17:53:00,
2013-01-28 13:03:00,32.0,30.0,29.83,North,0,1.0,3.0,92,0.00,,,0.00,,2013-01-28 18:03:00,
2013-01-28 13:12:00,32.0,30.0,29.83,North,0,1.0,3.0,92,0.00,,,0.00,,2013-01-28 18:12:00,
2013-01-28 13:23:00,32.0,30.0,29.83,North,0,1.0,3.0,93,0.00,,,0.00,,2013-01-28 18:23:00,
2013-01-28 13:33:00,33.0,31.0,29.83,North,0,0.0,0.0,93,0.00,,,0.00,,2013-01-28 18:33:00,
2013-01-28 13:42:00,33.0,31.0,29.83,North,0,0.0,0.0,93,0.00,,,0.00,,2013-01-28 18:42:00,
2013-01-28 13:52:00,32.0,30.0,29.83,North,0,0.0,3.0,93,0.00,,,0.00,,2013-01-28 18:52:00,
2013-01-28 14:02:00,32.0,30.0,29.83,North,0,1.0,3.0,93,0.00,,,0.00,,2013-01-28 19:02:00,
2013-01-28 14:12:00,32.0,30.0,29.83,North,0,1.0,3.0,93,0.00,,,0.00,,2013-01-28 19:12:00,
2013-01-28 14:20:00,32.0,30.0,29.83,North,354,5.0,8.0,92,0.00,,,0.00,,2013-01-28 19:20:00,
2013-01-28 14:22:00,32.0,30.0,29.82,North,0,6.0,6.0,93,0.00,,,0.00,,2013-01-28 19:22:00,
2013-01-28 14:33:00,32.0,30.0,29.83,North,358,6.0,8.0,92,0.00,,,0.00,,2013-01-28 19:33:00,
2013-01-28 14:42:00,32.0,30.0,29.83,North,358,6.0,8.0,92,0.00,,,0.00,,2013-01-28 19:42:00,
2013-01-28 14:53:00,32.0,30.0,29.83,North,354,5.0,8.0,92,0.00,,,0.00,,2013-01-28 19:53:00,
2013-01-28 15:03:00,32.0,30.0,29.83,North,354,5.0,8.0,92,0.00,,,0.00,,2013-01-28 20:03:00,
2013-01-28 15:12:00,32.0,30.0,29.83,North,354,5.0,8.0,92,0.00,,,0.00,,2013-01-28 20:12:00,
2013-01-28 19:02:00,29.0,26.0,29.96,North,7,0.0,3.0,90,0.00,,,0.00,,2013-01-29 00:02:00,
2013-01-28 19:12:00,29.0,26.0,29.96,North,7,0.0,3.0,90,0.00,,,0.00,,2013-01-29 00:12:00,
2013-01-28 19:22:00,29.0,26.0,29.96,North,7,0.0,3.0,89,0.00,,,0.00,,2013-01-29 00:22:00,
2013-01-28 19:33:00,29.0,26.0,29.97,North,7,1.0,3.0,90,0.00,,,0.00,,2013-01-29 00:33:00,
2013-01-28 19:42:00,29.0,26.0,29.97,North,7,1.0,3.0,90,0.00,,,0.00,,2013-01-29 00:42:00,
2013-01-28 19:52:00,29.0,27.0,29.98,North,7,2.0,3.0,91,0.00,,,0.00,,2013-01-29 00:52:00,
2013-01-28 20:02:00,29.0,27.0,29.99,North,7,2.0,3.0,91,0.00,,,0.00,,2013-01-29 01:02:00,
2013-01-28 20:12:00,29.0,27.0,29.99,North,7,2.0,3.0,91,0.00,,,0.00,,2013-01-29 01:12:00,
2013-01-28 20:23:00,29.0,27.0,30.00,North,7,1.0,3.0,91,0.00,,,0.00,,2013-01-29 01:23:00,
2013-01-28 20:32:00,29.0,26.0,30.00,North,7,0.0,3.0,90,0.00,,,0.00,,2013-01-29 01:32:00,
2013-01-28 20:42:00,29.0,26.0,30.00,North,7,0.0,3.0,90,0.00,,,0.00,,2013-01-29 01:42:00,
2013-01-28 20:53:00,30.0,27.0,30.00,North,7,2.0,3.0,90,0.00,,,0.00,,2013-01-29 01:53:00,
2013-01-28 21:02:00,30.0,27.0,29.99,North,7,0.0,3.0,90,0.00,,,0.00,,2013-01-29 02:02:00,
2013-01-28 21:12:00,30.0,27.0,29.99,North,7,0.0,3.0,90,0.00,,,0.00,,2013-01-29 02:12:00,
2013-01-28 21:22:00,30.0,27.0,29.98,North,7,0.0,3.0,90,0.00,,,0.00,,2013-01-29 02:22:00,
2013-01-28 21:33:00,30.0,27.0,29.98,North,7,1.0,3.0,90,0.00,,,0.00,,2013-01-29 02:33:00,
2013-01-28 21:42:00,30.0,27.0,29.98,North,7,1.0,3.0,90,0.00,,,0.00,,2013-01-29 02:42:00,
2013-01-28 21:53:00,30.0,27.0,29.99,SE,134,2.0,4.0,89,0.00,,,0.00,,2013-01-29 02:53:00,
2013-01-28 22:03:00,30.0,27.0,29.98,SE,125,2.0,3.0,88,0.00,,,0.00,,2013-01-29 03:03:00,
2013-01-28 22:12:00,30.0,27.0,29.98,SE,125,2.0,3.0,88,0.00,,,0.00,,2013-01-29 03:12:00,
2013-01-28 22:22:00,30.0,27.0,29.98,SE,125,0.0,3.0,88,0.00,,,0.00,,2013-01-29 03:22:00,
2013-01-28 22:32:00,30.0,27.0,29.98,SE,124,2.0,4.0,87,0.00,,,0.00,,2013-01-29 03:32:00,
2013-01-28 22:42:00,30.0,27.0,29.98,SE,124,2.0,4.0,87,0.00,,,0.00,,2013-01-29 03:42:00,
2013-01-28 22:53:00,30.0,27.0,29.98,SE,124,0.0,3.0,87,0.00,,,0.00,,2013-01-29 03:53:00,
2013-01-28 23:02:00,30.0,27.0,29.98,SE,124,0.0,3.0,87,0.00,,,0.00,,2013-01-29 04:02:00,
2013-01-28 23:12:00,30.0,27.0,29.98,SE,124,0.0,3.0,87,0.00,,,0.00,,2013-01-29 04:12:00,
2013-01-28 23:22:00,30.0,27.0,29.98,SE,124,0.0,3.0,88,0.00,,,0.00,,2013-01-29 04:22:00,
2013-01-28 23:32:00,29.0,26.0,29.98,SE,124,0.0,3.0,88,0.00,,,0.00,,2013-01-29 04:32:00,
2013-01-28 23:42:00,29.0,26.0,29.98,SE,124,0.0,3.0,88,0.00,,,0.00,,2013-01-29 04:42:00,
2013-01-28 23:52:00,29.0,26.0,29.98,SE,124,0.0,3.0,88,0.00,,,0.00,,2013-01-29 04:52:00,